sensor_id;sensor_type;location;lat;lon;timestamp;P1;durP1;ratioP1;P2;durP2;ratioP2
25758;SDS011;13604;52.496;13.456;2023-02-07T00:02:17;70.70;;;31.30;;
25758;SDS011;13604;52.496;13.456;2023-02-07T00:04:42;73.18;;;31.77;;
25758;SDS011;13604;52.496;13.456;2023-02-07T00:07:07;66.93;;;31.73;;
25758;SDS011;13604;52.496;13.456;2023-02-07T00:09:33;71.13;;;30.83;;
25758;SDS011;13604;52.496;13.456;2023-02-07T00:12:01;63.92;;;30.63;;
25758;SDS011;13604;52.496;13.456;2023-02-07T00:14:26;69.97;;;31.00;;
25758;SDS011;13604;52.496;13.456;2023-02-07T00:16:52;74.85;;;32.33;;
25758;SDS011;13604;52.496;13.456;2023-02-07T00:19:17;66.40;;;31.83;;
25758;SDS011;13604;52.496;13.456;2023-02-07T00:21:42;65.93;;;30.73;;
25758;SDS011;13604;52.496;13.456;2023-02-07T00:24:07;68.85;;;30.77;;
25758;SDS011;13604;52.496;13.456;2023-02-07T00:26:33;69.90;;;30.67;;
25758;SDS011;13604;52.496;13.456;2023-02-07T00:28:58;70.93;;;31.38;;
25758;SDS011;13604;52.496;13.456;2023-02-07T00:31:25;72.70;;;32.05;;
25758;SDS011;13604;52.496;13.456;2023-02-07T00:33:53;66.28;;;28.42;;
25758;SDS011;13604;52.496;13.456;2023-02-07T00:36:22;69.57;;;29.83;;
25758;SDS011;13604;52.496;13.456;2023-02-07T00:38:48;56.45;;;28.52;;
25758;SDS011;13604;52.496;13.456;2023-02-07T00:41:14;74.88;;;30.55;;
25758;SDS011;13604;52.496;13.456;2023-02-07T00:43:42;67.68;;;29.80;;
25758;SDS011;13604;52.496;13.456;2023-02-07T00:46:08;58.97;;;29.65;;
25758;SDS011;13604;52.496;13.456;2023-02-07T00:48:34;60.95;;;29.25;;
25758;SDS011;13604;52.496;13.456;2023-02-07T00:50:59;69.60;;;30.23;;
25758;SDS011;13604;52.496;13.456;2023-02-07T00:53:25;66.32;;;28.80;;
25758;SDS011;13604;52.496;13.456;2023-02-07T00:55:52;66.25;;;28.88;;
25758;SDS011;13604;52.496;13.456;2023-02-07T00:58:18;64.75;;;29.10;;
25758;SDS011;13604;52.496;13.456;2023-02-07T01:00:43;71.97;;;30.70;;
25758;SDS011;13604;52.496;13.456;2023-02-07T01:03:08;60.78;;;28.17;;
25758;SDS011;13604;52.496;13.456;2023-02-07T01:05:34;62.28;;;27.23;;
25758;SDS011;13604;52.496;13.456;2023-02-07T01:07:59;66.22;;;30.55;;
25758;SDS011;13604;52.496;13.456;2023-02-07T01:10:24;71.20;;;31.05;;
25758;SDS011;13604;52.496;13.456;2023-02-07T01:12:50;59.85;;;27.00;;
25758;SDS011;13604;52.496;13.456;2023-02-07T01:15:16;62.13;;;29.75;;
25758;SDS011;13604;52.496;13.456;2023-02-07T01:17:41;62.65;;;29.60;;
25758;SDS011;13604;52.496;13.456;2023-02-07T01:20:06;66.60;;;28.98;;
25758;SDS011;13604;52.496;13.456;2023-02-07T01:22:32;61.95;;;28.55;;
25758;SDS011;13604;52.496;13.456;2023-02-07T01:24:58;65.45;;;28.77;;
25758;SDS011;13604;52.496;13.456;2023-02-07T01:27:23;56.08;;;27.17;;
25758;SDS011;13604;52.496;13.456;2023-02-07T01:29:48;60.45;;;28.67;;
25758;SDS011;13604;52.496;13.456;2023-02-07T01:32:14;64.95;;;28.30;;
25758;SDS011;13604;52.496;13.456;2023-02-07T01:34:40;67.95;;;29.65;;
25758;SDS011;13604;52.496;13.456;2023-02-07T01:37:05;63.03;;;28.63;;
25758;SDS011;13604;52.496;13.456;2023-02-07T01:39:30;62.80;;;29.13;;
25758;SDS011;13604;52.496;13.456;2023-02-07T01:41:56;61.50;;;28.20;;
25758;SDS011;13604;52.496;13.456;2023-02-07T01:46:46;61.67;;;28.85;;
25758;SDS011;13604;52.496;13.456;2023-02-07T01:49:13;64.45;;;29.25;;
25758;SDS011;13604;52.496;13.456;2023-02-07T01:51:40;59.88;;;28.10;;
25758;SDS011;13604;52.496;13.456;2023-02-07T01:54:10;60.70;;;29.83;;
25758;SDS011;13604;52.496;13.456;2023-02-07T01:56:39;64.03;;;29.23;;
25758;SDS011;13604;52.496;13.456;2023-02-07T01:59:09;74.68;;;31.35;;
25758;SDS011;13604;52.496;13.456;2023-02-07T02:01:35;63.42;;;29.35;;
25758;SDS011;13604;52.496;13.456;2023-02-07T02:04:00;80.10;;;31.65;;
25758;SDS011;13604;52.496;13.456;2023-02-07T02:06:26;67.63;;;31.13;;
25758;SDS011;13604;52.496;13.456;2023-02-07T02:08:53;76.18;;;30.08;;
25758;SDS011;13604;52.496;13.456;2023-02-07T02:11:29;70.45;;;31.00;;
25758;SDS011;13604;52.496;13.456;2023-02-07T02:14:15;62.53;;;29.05;;
25758;SDS011;13604;52.496;13.456;2023-02-07T02:17:12;66.32;;;31.20;;
25758;SDS011;13604;52.496;13.456;2023-02-07T02:23:01;67.60;;;28.85;;
25758;SDS011;13604;52.496;13.456;2023-02-07T02:25:46;72.03;;;29.83;;
25758;SDS011;13604;52.496;13.456;2023-02-07T02:33:55;57.97;;;28.58;;
25758;SDS011;13604;52.496;13.456;2023-02-07T02:36:33;64.72;;;29.60;;
25758;SDS011;13604;52.496;13.456;2023-02-07T02:39:16;68.20;;;28.20;;
25758;SDS011;13604;52.496;13.456;2023-02-07T02:41:57;71.28;;;28.67;;
25758;SDS011;13604;52.496;13.456;2023-02-07T02:44:33;65.43;;;29.75;;
25758;SDS011;13604;52.496;13.456;2023-02-07T02:47:06;63.22;;;27.88;;
25758;SDS011;13604;52.496;13.456;2023-02-07T02:49:34;61.50;;;29.20;;
25758;SDS011;13604;52.496;13.456;2023-02-07T02:52:01;59.65;;;27.80;;
25758;SDS011;13604;52.496;13.456;2023-02-07T02:54:28;60.53;;;28.02;;
25758;SDS011;13604;52.496;13.456;2023-02-07T03:02:31;66.13;;;29.58;;
25758;SDS011;13604;52.496;13.456;2023-02-07T03:05:23;67.88;;;30.35;;
25758;SDS011;13604;52.496;13.456;2023-02-07T03:08:11;70.55;;;29.80;;
25758;SDS011;13604;52.496;13.456;2023-02-07T03:10:56;68.88;;;27.70;;
25758;SDS011;13604;52.496;13.456;2023-02-07T03:13:51;67.03;;;30.25;;
25758;SDS011;13604;52.496;13.456;2023-02-07T03:16:21;78.88;;;31.42;;
25758;SDS011;13604;52.496;13.456;2023-02-07T03:21:45;83.90;;;35.17;;
25758;SDS011;13604;52.496;13.456;2023-02-07T03:24:16;86.43;;;36.67;;
25758;SDS011;13604;52.496;13.456;2023-02-07T03:26:45;79.40;;;33.97;;
25758;SDS011;13604;52.496;13.456;2023-02-07T03:29:15;97.35;;;36.33;;
25758;SDS011;13604;52.496;13.456;2023-02-07T03:31:43;82.28;;;36.75;;
25758;SDS011;13604;52.496;13.456;2023-02-07T03:34:17;91.47;;;37.30;;
25758;SDS011;13604;52.496;13.456;2023-02-07T03:39:24;70.90;;;33.42;;
25758;SDS011;13604;52.496;13.456;2023-02-07T03:41:51;80.30;;;33.35;;
25758;SDS011;13604;52.496;13.456;2023-02-07T03:44:21;76.05;;;32.10;;
25758;SDS011;13604;52.496;13.456;2023-02-07T03:46:48;73.88;;;32.65;;
25758;SDS011;13604;52.496;13.456;2023-02-07T03:49:14;81.55;;;34.50;;
25758;SDS011;13604;52.496;13.456;2023-02-07T03:51:41;75.75;;;33.10;;
25758;SDS011;13604;52.496;13.456;2023-02-07T03:54:07;79.10;;;32.92;;
25758;SDS011;13604;52.496;13.456;2023-02-07T03:56:33;68.18;;;32.08;;
25758;SDS011;13604;52.496;13.456;2023-02-07T03:58:58;71.07;;;31.80;;
25758;SDS011;13604;52.496;13.456;2023-02-07T04:01:23;65.20;;;29.50;;
25758;SDS011;13604;52.496;13.456;2023-02-07T04:03:48;67.78;;;29.05;;
25758;SDS011;13604;52.496;13.456;2023-02-07T04:06:14;74.03;;;31.75;;
25758;SDS011;13604;52.496;13.456;2023-02-07T04:08:39;73.05;;;32.00;;
25758;SDS011;13604;52.496;13.456;2023-02-07T04:11:04;74.55;;;33.15;;
25758;SDS011;13604;52.496;13.456;2023-02-07T04:13:30;72.28;;;31.42;;
25758;SDS011;13604;52.496;13.456;2023-02-07T04:15:55;78.28;;;31.70;;
25758;SDS011;13604;52.496;13.456;2023-02-07T04:18:21;74.22;;;31.30;;
25758;SDS011;13604;52.496;13.456;2023-02-07T04:20:46;67.82;;;30.27;;
25758;SDS011;13604;52.496;13.456;2023-02-07T04:23:12;67.65;;;30.90;;
25758;SDS011;13604;52.496;13.456;2023-02-07T04:25:38;71.97;;;32.17;;
25758;SDS011;13604;52.496;13.456;2023-02-07T04:28:03;69.90;;;30.08;;
25758;SDS011;13604;52.496;13.456;2023-02-07T04:30:28;63.92;;;28.85;;
25758;SDS011;13604;52.496;13.456;2023-02-07T04:32:55;70.95;;;31.13;;
25758;SDS011;13604;52.496;13.456;2023-02-07T04:35:21;70.28;;;30.70;;
25758;SDS011;13604;52.496;13.456;2023-02-07T04:37:46;72.93;;;30.85;;
25758;SDS011;13604;52.496;13.456;2023-02-07T04:40:11;72.97;;;32.03;;
25758;SDS011;13604;52.496;13.456;2023-02-07T04:42:36;74.40;;;33.72;;
25758;SDS011;13604;52.496;13.456;2023-02-07T04:45:02;71.32;;;31.67;;
25758;SDS011;13604;52.496;13.456;2023-02-07T04:47:27;80.10;;;33.03;;
25758;SDS011;13604;52.496;13.456;2023-02-07T04:49:52;71.55;;;32.60;;
25758;SDS011;13604;52.496;13.456;2023-02-07T04:52:18;71.47;;;31.48;;
25758;SDS011;13604;52.496;13.456;2023-02-07T04:54:43;72.53;;;31.33;;
25758;SDS011;13604;52.496;13.456;2023-02-07T04:57:09;64.38;;;30.10;;
25758;SDS011;13604;52.496;13.456;2023-02-07T04:59:35;68.57;;;30.60;;
25758;SDS011;13604;52.496;13.456;2023-02-07T05:02:00;74.85;;;31.02;;
25758;SDS011;13604;52.496;13.456;2023-02-07T05:04:25;62.22;;;28.48;;
25758;SDS011;13604;52.496;13.456;2023-02-07T05:06:51;67.15;;;30.52;;
25758;SDS011;13604;52.496;13.456;2023-02-07T05:09:16;58.63;;;28.60;;
25758;SDS011;13604;52.496;13.456;2023-02-07T05:11:41;60.50;;;29.65;;
25758;SDS011;13604;52.496;13.456;2023-02-07T05:14:07;60.90;;;29.05;;
25758;SDS011;13604;52.496;13.456;2023-02-07T05:16:32;73.85;;;31.98;;
25758;SDS011;13604;52.496;13.456;2023-02-07T05:18:57;66.40;;;29.83;;
25758;SDS011;13604;52.496;13.456;2023-02-07T05:21:23;65.32;;;29.67;;
25758;SDS011;13604;52.496;13.456;2023-02-07T05:23:48;72.30;;;32.58;;
25758;SDS011;13604;52.496;13.456;2023-02-07T05:26:13;73.22;;;32.08;;
25758;SDS011;13604;52.496;13.456;2023-02-07T05:28:38;75.82;;;31.38;;
25758;SDS011;13604;52.496;13.456;2023-02-07T05:31:04;64.43;;;29.15;;
25758;SDS011;13604;52.496;13.456;2023-02-07T05:33:29;70.55;;;31.23;;
25758;SDS011;13604;52.496;13.456;2023-02-07T05:35:54;77.75;;;32.42;;
25758;SDS011;13604;52.496;13.456;2023-02-07T05:38:20;72.05;;;33.70;;
25758;SDS011;13604;52.496;13.456;2023-02-07T05:40:46;68.38;;;31.73;;
25758;SDS011;13604;52.496;13.456;2023-02-07T05:43:12;83.28;;;33.88;;
25758;SDS011;13604;52.496;13.456;2023-02-07T05:45:38;72.65;;;31.98;;
25758;SDS011;13604;52.496;13.456;2023-02-07T05:48:03;78.30;;;34.20;;
25758;SDS011;13604;52.496;13.456;2023-02-07T05:50:29;79.07;;;33.22;;
25758;SDS011;13604;52.496;13.456;2023-02-07T05:52:54;77.18;;;31.90;;
25758;SDS011;13604;52.496;13.456;2023-02-07T05:55:20;65.70;;;30.00;;
25758;SDS011;13604;52.496;13.456;2023-02-07T05:57:45;70.35;;;30.35;;
25758;SDS011;13604;52.496;13.456;2023-02-07T06:00:14;69.18;;;30.15;;
25758;SDS011;13604;52.496;13.456;2023-02-07T06:02:41;61.63;;;28.45;;
25758;SDS011;13604;52.496;13.456;2023-02-07T06:05:08;65.75;;;27.73;;
25758;SDS011;13604;52.496;13.456;2023-02-07T06:07:35;63.50;;;28.33;;
25758;SDS011;13604;52.496;13.456;2023-02-07T06:10:00;63.70;;;27.88;;
25758;SDS011;13604;52.496;13.456;2023-02-07T06:12:26;72.35;;;29.80;;
25758;SDS011;13604;52.496;13.456;2023-02-07T06:14:51;62.60;;;27.08;;
25758;SDS011;13604;52.496;13.456;2023-02-07T06:17:16;65.07;;;29.55;;
25758;SDS011;13604;52.496;13.456;2023-02-07T06:19:42;63.25;;;29.25;;
25758;SDS011;13604;52.496;13.456;2023-02-07T06:22:07;67.03;;;29.15;;
25758;SDS011;13604;52.496;13.456;2023-02-07T06:24:33;70.78;;;31.95;;
25758;SDS011;13604;52.496;13.456;2023-02-07T06:26:58;72.10;;;29.67;;
25758;SDS011;13604;52.496;13.456;2023-02-07T06:29:23;71.32;;;29.63;;
25758;SDS011;13604;52.496;13.456;2023-02-07T06:31:49;65.88;;;29.50;;
25758;SDS011;13604;52.496;13.456;2023-02-07T06:34:14;62.20;;;27.83;;
25758;SDS011;13604;52.496;13.456;2023-02-07T06:36:39;61.30;;;27.33;;
25758;SDS011;13604;52.496;13.456;2023-02-07T06:39:04;67.65;;;27.90;;
25758;SDS011;13604;52.496;13.456;2023-02-07T06:41:30;59.63;;;26.58;;
25758;SDS011;13604;52.496;13.456;2023-02-07T06:43:55;66.68;;;27.63;;
25758;SDS011;13604;52.496;13.456;2023-02-07T06:46:20;66.93;;;27.40;;
25758;SDS011;13604;52.496;13.456;2023-02-07T06:48:46;63.97;;;29.90;;
25758;SDS011;13604;52.496;13.456;2023-02-07T06:51:11;66.63;;;28.58;;
25758;SDS011;13604;52.496;13.456;2023-02-07T06:53:37;71.50;;;30.88;;
25758;SDS011;13604;52.496;13.456;2023-02-07T06:56:02;70.53;;;31.02;;
25758;SDS011;13604;52.496;13.456;2023-02-07T06:58:28;77.90;;;33.28;;
25758;SDS011;13604;52.496;13.456;2023-02-07T07:00:53;79.18;;;34.50;;
25758;SDS011;13604;52.496;13.456;2023-02-07T07:03:18;76.45;;;34.97;;
25758;SDS011;13604;52.496;13.456;2023-02-07T07:05:44;87.97;;;36.38;;
25758;SDS011;13604;52.496;13.456;2023-02-07T07:08:09;75.43;;;33.70;;
25758;SDS011;13604;52.496;13.456;2023-02-07T07:10:36;76.88;;;34.45;;
25758;SDS011;13604;52.496;13.456;2023-02-07T07:13:01;79.30;;;35.03;;
25758;SDS011;13604;52.496;13.456;2023-02-07T07:15:27;76.70;;;35.17;;
25758;SDS011;13604;52.496;13.456;2023-02-07T07:17:52;81.10;;;33.78;;
25758;SDS011;13604;52.496;13.456;2023-02-07T07:20:17;75.72;;;32.53;;
25758;SDS011;13604;52.496;13.456;2023-02-07T07:22:43;91.07;;;36.75;;
25758;SDS011;13604;52.496;13.456;2023-02-07T07:25:11;91.20;;;37.25;;
25758;SDS011;13604;52.496;13.456;2023-02-07T07:27:36;93.90;;;39.33;;
25758;SDS011;13604;52.496;13.456;2023-02-07T07:30:02;93.78;;;37.28;;
25758;SDS011;13604;52.496;13.456;2023-02-07T07:32:28;89.82;;;38.30;;
25758;SDS011;13604;52.496;13.456;2023-02-07T07:34:53;95.03;;;40.45;;
25758;SDS011;13604;52.496;13.456;2023-02-07T07:37:19;94.65;;;38.47;;
25758;SDS011;13604;52.496;13.456;2023-02-07T07:39:44;89.85;;;38.38;;
25758;SDS011;13604;52.496;13.456;2023-02-07T07:42:10;93.53;;;40.25;;
25758;SDS011;13604;52.496;13.456;2023-02-07T07:44:35;91.03;;;41.65;;
25758;SDS011;13604;52.496;13.456;2023-02-07T07:47:00;101.82;;;43.13;;
25758;SDS011;13604;52.496;13.456;2023-02-07T07:49:26;97.93;;;42.47;;
25758;SDS011;13604;52.496;13.456;2023-02-07T07:51:51;87.75;;;38.35;;
25758;SDS011;13604;52.496;13.456;2023-02-07T07:54:17;92.30;;;39.42;;
25758;SDS011;13604;52.496;13.456;2023-02-07T07:56:43;91.20;;;40.53;;
25758;SDS011;13604;52.496;13.456;2023-02-07T07:59:08;90.40;;;38.75;;
25758;SDS011;13604;52.496;13.456;2023-02-07T08:01:33;108.00;;;44.92;;
25758;SDS011;13604;52.496;13.456;2023-02-07T08:03:58;87.95;;;40.85;;
25758;SDS011;13604;52.496;13.456;2023-02-07T08:06:25;90.75;;;43.10;;
25758;SDS011;13604;52.496;13.456;2023-02-07T08:08:50;87.35;;;40.75;;
25758;SDS011;13604;52.496;13.456;2023-02-07T08:11:15;98.25;;;41.60;;
25758;SDS011;13604;52.496;13.456;2023-02-07T08:13:41;94.43;;;42.70;;
25758;SDS011;13604;52.496;13.456;2023-02-07T08:16:06;101.15;;;41.53;;
25758;SDS011;13604;52.496;13.456;2023-02-07T08:18:33;89.55;;;41.63;;
25758;SDS011;13604;52.496;13.456;2023-02-07T08:20:58;85.88;;;41.13;;
25758;SDS011;13604;52.496;13.456;2023-02-07T08:23:24;86.95;;;39.67;;
25758;SDS011;13604;52.496;13.456;2023-02-07T08:25:49;93.72;;;41.92;;
25758;SDS011;13604;52.496;13.456;2023-02-07T08:28:15;96.07;;;43.58;;
25758;SDS011;13604;52.496;13.456;2023-02-07T08:30:41;99.78;;;46.38;;
25758;SDS011;13604;52.496;13.456;2023-02-07T08:33:07;97.53;;;44.20;;
25758;SDS011;13604;52.496;13.456;2023-02-07T08:35:32;90.70;;;41.83;;
25758;SDS011;13604;52.496;13.456;2023-02-07T08:37:58;85.82;;;41.28;;
25758;SDS011;13604;52.496;13.456;2023-02-07T08:40:24;79.20;;;38.28;;
25758;SDS011;13604;52.496;13.456;2023-02-07T08:42:49;85.15;;;40.42;;
25758;SDS011;13604;52.496;13.456;2023-02-07T08:45:14;87.25;;;41.08;;
25758;SDS011;13604;52.496;13.456;2023-02-07T08:47:41;80.05;;;38.70;;
25758;SDS011;13604;52.496;13.456;2023-02-07T08:50:10;82.70;;;41.95;;
25758;SDS011;13604;52.496;13.456;2023-02-07T08:52:36;83.57;;;41.25;;
25758;SDS011;13604;52.496;13.456;2023-02-07T08:55:01;70.40;;;34.28;;
25758;SDS011;13604;52.496;13.456;2023-02-07T08:57:27;66.43;;;34.92;;
25758;SDS011;13604;52.496;13.456;2023-02-07T08:59:52;68.78;;;34.95;;
25758;SDS011;13604;52.496;13.456;2023-02-07T09:02:18;69.50;;;33.95;;
25758;SDS011;13604;52.496;13.456;2023-02-07T09:04:43;72.53;;;34.28;;
25758;SDS011;13604;52.496;13.456;2023-02-07T09:07:09;66.00;;;34.30;;
25758;SDS011;13604;52.496;13.456;2023-02-07T09:09:35;66.03;;;32.88;;
25758;SDS011;13604;52.496;13.456;2023-02-07T09:12:00;65.45;;;31.73;;
25758;SDS011;13604;52.496;13.456;2023-02-07T09:14:26;60.58;;;31.75;;
25758;SDS011;13604;52.496;13.456;2023-02-07T09:16:51;62.65;;;31.88;;
25758;SDS011;13604;52.496;13.456;2023-02-07T09:19:16;72.95;;;33.80;;
25758;SDS011;13604;52.496;13.456;2023-02-07T09:21:42;63.28;;;32.15;;
25758;SDS011;13604;52.496;13.456;2023-02-07T09:24:07;68.30;;;34.65;;
25758;SDS011;13604;52.496;13.456;2023-02-07T09:26:33;63.80;;;32.95;;
25758;SDS011;13604;52.496;13.456;2023-02-07T09:28:59;58.03;;;31.23;;
25758;SDS011;13604;52.496;13.456;2023-02-07T09:31:24;54.92;;;30.23;;
25758;SDS011;13604;52.496;13.456;2023-02-07T09:33:49;56.95;;;32.45;;
25758;SDS011;13604;52.496;13.456;2023-02-07T09:36:22;57.90;;;30.38;;
25758;SDS011;13604;52.496;13.456;2023-02-07T09:38:50;55.53;;;29.27;;
25758;SDS011;13604;52.496;13.456;2023-02-07T09:41:21;52.05;;;29.40;;
25758;SDS011;13604;52.496;13.456;2023-02-07T09:46:29;50.92;;;28.02;;
25758;SDS011;13604;52.496;13.456;2023-02-07T09:49:10;51.85;;;27.75;;
25758;SDS011;13604;52.496;13.456;2023-02-07T09:51:41;42.80;;;25.02;;
25758;SDS011;13604;52.496;13.456;2023-02-07T09:56:46;49.67;;;24.45;;
25758;SDS011;13604;52.496;13.456;2023-02-07T09:59:20;40.05;;;22.90;;
25758;SDS011;13604;52.496;13.456;2023-02-07T10:01:52;42.05;;;22.98;;
25758;SDS011;13604;52.496;13.456;2023-02-07T10:06:58;36.33;;;21.90;;
25758;SDS011;13604;52.496;13.456;2023-02-07T10:09:31;35.70;;;22.00;;
25758;SDS011;13604;52.496;13.456;2023-02-07T10:14:51;36.40;;;21.20;;
25758;SDS011;13604;52.496;13.456;2023-02-07T10:20:36;35.58;;;20.73;;
25758;SDS011;13604;52.496;13.456;2023-02-07T10:31:13;34.60;;;20.92;;
25758;SDS011;13604;52.496;13.456;2023-02-07T10:33:48;36.25;;;22.00;;
25758;SDS011;13604;52.496;13.456;2023-02-07T10:36:17;34.05;;;21.52;;
25758;SDS011;13604;52.496;13.456;2023-02-07T10:39:02;33.40;;;20.00;;
25758;SDS011;13604;52.496;13.456;2023-02-07T10:41:34;35.15;;;19.52;;
25758;SDS011;13604;52.496;13.456;2023-02-07T10:44:04;29.92;;;18.85;;
25758;SDS011;13604;52.496;13.456;2023-02-07T10:46:30;30.02;;;19.45;;
25758;SDS011;13604;52.496;13.456;2023-02-07T10:48:58;32.22;;;18.60;;
25758;SDS011;13604;52.496;13.456;2023-02-07T10:54:10;31.63;;;18.67;;
25758;SDS011;13604;52.496;13.456;2023-02-07T10:56:48;36.05;;;20.27;;
25758;SDS011;13604;52.496;13.456;2023-02-07T11:01:59;33.47;;;19.98;;
25758;SDS011;13604;52.496;13.456;2023-02-07T11:07:06;28.58;;;17.85;;
25758;SDS011;13604;52.496;13.456;2023-02-07T11:09:32;27.95;;;18.27;;
25758;SDS011;13604;52.496;13.456;2023-02-07T11:12:03;24.15;;;16.67;;
25758;SDS011;13604;52.496;13.456;2023-02-07T11:15:03;31.38;;;19.50;;
25758;SDS011;13604;52.496;13.456;2023-02-07T11:17:38;37.13;;;20.73;;
25758;SDS011;13604;52.496;13.456;2023-02-07T11:20:04;30.85;;;20.15;;
25758;SDS011;13604;52.496;13.456;2023-02-07T11:22:32;37.15;;;20.00;;
25758;SDS011;13604;52.496;13.456;2023-02-07T11:25:01;27.48;;;17.45;;
25758;SDS011;13604;52.496;13.456;2023-02-07T11:27:35;25.88;;;17.55;;
25758;SDS011;13604;52.496;13.456;2023-02-07T11:32:31;28.65;;;17.05;;
25758;SDS011;13604;52.496;13.456;2023-02-07T11:35:03;27.55;;;16.65;;
25758;SDS011;13604;52.496;13.456;2023-02-07T11:37:32;26.58;;;16.65;;
25758;SDS011;13604;52.496;13.456;2023-02-07T11:42:43;26.83;;;18.48;;
25758;SDS011;13604;52.496;13.456;2023-02-07T11:45:13;23.02;;;15.77;;
25758;SDS011;13604;52.496;13.456;2023-02-07T11:47:42;24.65;;;15.77;;
25758;SDS011;13604;52.496;13.456;2023-02-07T11:50:15;23.85;;;16.92;;
25758;SDS011;13604;52.496;13.456;2023-02-07T11:52:48;24.20;;;16.60;;
25758;SDS011;13604;52.496;13.456;2023-02-07T11:57:49;24.67;;;15.75;;
25758;SDS011;13604;52.496;13.456;2023-02-07T12:00:21;23.35;;;16.90;;
25758;SDS011;13604;52.496;13.456;2023-02-07T12:02:50;25.42;;;16.30;;
25758;SDS011;13604;52.496;13.456;2023-02-07T12:05:25;24.42;;;16.40;;
25758;SDS011;13604;52.496;13.456;2023-02-07T12:08:01;28.38;;;16.92;;
25758;SDS011;13604;52.496;13.456;2023-02-07T12:10:34;21.88;;;15.90;;
25758;SDS011;13604;52.496;13.456;2023-02-07T12:13:09;29.92;;;17.17;;
25758;SDS011;13604;52.496;13.456;2023-02-07T12:15:40;22.70;;;15.93;;
25758;SDS011;13604;52.496;13.456;2023-02-07T12:20:35;26.07;;;17.50;;
25758;SDS011;13604;52.496;13.456;2023-02-07T12:25:54;26.02;;;16.90;;
25758;SDS011;13604;52.496;13.456;2023-02-07T12:28:29;23.23;;;15.95;;
25758;SDS011;13604;52.496;13.456;2023-02-07T12:31:04;24.65;;;16.30;;
25758;SDS011;13604;52.496;13.456;2023-02-07T12:33:39;26.08;;;17.10;;
25758;SDS011;13604;52.496;13.456;2023-02-07T12:36:20;25.48;;;16.15;;
25758;SDS011;13604;52.496;13.456;2023-02-07T12:39:00;24.00;;;16.73;;
25758;SDS011;13604;52.496;13.456;2023-02-07T12:41:32;22.67;;;15.48;;
25758;SDS011;13604;52.496;13.456;2023-02-07T12:44:24;24.55;;;15.40;;
25758;SDS011;13604;52.496;13.456;2023-02-07T12:46:59;20.88;;;13.98;;
25758;SDS011;13604;52.496;13.456;2023-02-07T12:49:44;25.60;;;16.13;;
25758;SDS011;13604;52.496;13.456;2023-02-07T12:52:42;23.60;;;14.85;;
25758;SDS011;13604;52.496;13.456;2023-02-07T12:55:23;20.40;;;13.02;;
25758;SDS011;13604;52.496;13.456;2023-02-07T12:58:17;31.95;;;15.52;;
25758;SDS011;13604;52.496;13.456;2023-02-07T13:01:19;19.45;;;12.52;;
25758;SDS011;13604;52.496;13.456;2023-02-07T13:04:08;19.48;;;11.90;;
25758;SDS011;13604;52.496;13.456;2023-02-07T13:12:10;20.95;;;13.20;;
25758;SDS011;13604;52.496;13.456;2023-02-07T13:20:32;15.68;;;10.55;;
25758;SDS011;13604;52.496;13.456;2023-02-07T13:23:29;13.50;;;10.10;;
25758;SDS011;13604;52.496;13.456;2023-02-07T13:25:59;15.60;;;10.15;;
25758;SDS011;13604;52.496;13.456;2023-02-07T13:31:06;14.90;;;10.50;;
25758;SDS011;13604;52.496;13.456;2023-02-07T13:33:35;15.45;;;10.68;;
25758;SDS011;13604;52.496;13.456;2023-02-07T13:36:06;19.50;;;11.48;;
25758;SDS011;13604;52.496;13.456;2023-02-07T13:38:49;20.38;;;11.55;;
25758;SDS011;13604;52.496;13.456;2023-02-07T13:41:30;15.13;;;10.82;;
25758;SDS011;13604;52.496;13.456;2023-02-07T13:44:17;14.25;;;10.07;;
25758;SDS011;13604;52.496;13.456;2023-02-07T13:47:01;16.77;;;11.70;;
25758;SDS011;13604;52.496;13.456;2023-02-07T13:49:42;14.57;;;10.88;;
25758;SDS011;13604;52.496;13.456;2023-02-07T13:58:03;14.02;;;9.65;;
25758;SDS011;13604;52.496;13.456;2023-02-07T14:01:20;13.63;;;9.95;;
25758;SDS011;13604;52.496;13.456;2023-02-07T14:06:35;14.18;;;10.23;;
25758;SDS011;13604;52.496;13.456;2023-02-07T14:09:14;15.05;;;11.52;;
25758;SDS011;13604;52.496;13.456;2023-02-07T14:11:46;15.68;;;10.90;;
25758;SDS011;13604;52.496;13.456;2023-02-07T14:14:24;14.23;;;10.68;;
25758;SDS011;13604;52.496;13.456;2023-02-07T14:22:20;17.77;;;11.93;;
25758;SDS011;13604;52.496;13.456;2023-02-07T14:30:14;18.42;;;11.93;;
25758;SDS011;13604;52.496;13.456;2023-02-07T14:36:00;18.00;;;12.00;;
25758;SDS011;13604;52.496;13.456;2023-02-07T14:37:52;20.08;;;13.02;;
25758;SDS011;13604;52.496;13.456;2023-02-07T14:40:27;21.52;;;13.80;;
25758;SDS011;13604;52.496;13.456;2023-02-07T14:43:00;17.40;;;11.98;;
25758;SDS011;13604;52.496;13.456;2023-02-07T14:45:29;17.77;;;13.30;;
25758;SDS011;13604;52.496;13.456;2023-02-07T14:47:57;17.15;;;12.38;;
25758;SDS011;13604;52.496;13.456;2023-02-07T14:50:24;17.58;;;12.77;;
25758;SDS011;13604;52.496;13.456;2023-02-07T14:52:54;22.65;;;14.52;;
25758;SDS011;13604;52.496;13.456;2023-02-07T14:55:35;21.88;;;14.20;;
25758;SDS011;13604;52.496;13.456;2023-02-07T14:58:10;21.13;;;13.98;;
25758;SDS011;13604;52.496;13.456;2023-02-07T15:00:52;20.92;;;13.43;;
25758;SDS011;13604;52.496;13.456;2023-02-07T15:03:22;22.30;;;14.50;;
25758;SDS011;13604;52.496;13.456;2023-02-07T15:05:53;25.95;;;15.30;;
25758;SDS011;13604;52.496;13.456;2023-02-07T15:08:23;23.52;;;14.05;;
25758;SDS011;13604;52.496;13.456;2023-02-07T15:10:53;24.50;;;15.38;;
25758;SDS011;13604;52.496;13.456;2023-02-07T15:13:24;25.63;;;14.98;;
25758;SDS011;13604;52.496;13.456;2023-02-07T15:15:59;25.23;;;15.02;;
25758;SDS011;13604;52.496;13.456;2023-02-07T15:18:41;28.38;;;15.80;;
25758;SDS011;13604;52.496;13.456;2023-02-07T15:21:15;26.58;;;14.77;;
25758;SDS011;13604;52.496;13.456;2023-02-07T15:23:47;31.70;;;15.48;;
25758;SDS011;13604;52.496;13.456;2023-02-07T15:26:33;28.08;;;15.70;;
25758;SDS011;13604;52.496;13.456;2023-02-07T15:29:02;26.92;;;15.15;;
25758;SDS011;13604;52.496;13.456;2023-02-07T15:31:29;29.98;;;16.23;;
25758;SDS011;13604;52.496;13.456;2023-02-07T15:33:56;28.17;;;14.60;;
25758;SDS011;13604;52.496;13.456;2023-02-07T15:36:37;29.23;;;15.57;;
25758;SDS011;13604;52.496;13.456;2023-02-07T15:39:05;28.63;;;14.70;;
25758;SDS011;13604;52.496;13.456;2023-02-07T15:41:40;32.35;;;15.27;;
25758;SDS011;13604;52.496;13.456;2023-02-07T15:44:06;30.20;;;15.32;;
25758;SDS011;13604;52.496;13.456;2023-02-07T15:46:42;31.77;;;14.93;;
25758;SDS011;13604;52.496;13.456;2023-02-07T15:49:26;30.60;;;15.35;;
25758;SDS011;13604;52.496;13.456;2023-02-07T15:54:57;28.98;;;14.43;;
25758;SDS011;13604;52.496;13.456;2023-02-07T15:57:26;32.03;;;15.05;;
25758;SDS011;13604;52.496;13.456;2023-02-07T15:59:54;29.05;;;15.57;;
25758;SDS011;13604;52.496;13.456;2023-02-07T16:02:27;30.65;;;15.65;;
25758;SDS011;13604;52.496;13.456;2023-02-07T16:04:55;31.40;;;15.02;;
25758;SDS011;13604;52.496;13.456;2023-02-07T16:07:21;33.08;;;15.75;;